Sweeney Granite Mountains, California Weather observations

Data are for 10 minute period ending at time listed.
 Day   Time   Solar   Ave.   Ave.  Ave.  Vector  Max.   Baro.   Total    
  of    of     Rad.   Air    Rel.  Wind   Wind   Wind  Press.  Precip.   
Year   Day            Temp.  Hum.  Speed  Dir.   Gust                    
2014   (PST)  Kw/m2    F      %     mph   deg.    mph    mb.     in.     
-------------------------------------------------------------------------
 241    0:00   0.00   75.8    14    5.1   279     6.8   870.5    0.00 
 241    0:10   0.00   77.0    14    4.5   274     6.4   870.4    0.00 
 241    0:20   0.00   77.6    14    3.8   276     5.4   870.3    0.00 
 241    0:30   0.00   76.9    14    3.0   268     5.3   870.3    0.00 
 241    0:40   0.00   76.0    14    3.5   279     5.3   870.2    0.00 
 241    0:50   0.00   75.9    14    5.2   319    10.6   870.1    0.00 
 241    1:00   0.00   79.7    14    9.2   322    13.1   870.0    0.00 
 241    1:10   0.00   80.0    14    9.7   318    12.6   870.2    0.00 
 241    1:20   0.00   79.8    15    9.9   323    13.4   870.4    0.00 
 241    1:30   0.00   79.8    15   10.5   322    14.8   870.4    0.00 
 241    1:40   0.00   79.7    16   12.1   313    17.2   870.4    0.00 
 241    1:50   0.00   79.9    15   12.6   320    18.2   870.3    0.00 
 241    2:00   0.00   79.9    15   12.4   319    17.4   870.2    0.00 
 241    2:10   0.00   79.9    14   11.9   318    16.9   870.1    0.00 
 241    2:20   0.00   79.8    14   12.7   317    17.9   870.1    0.00 
 241    2:30   0.00   80.2    14   14.1   319    21.2   870.1    0.00 
 241    2:40   0.00   80.2    14   13.2   321    20.0   870.1    0.00 
 241    2:50   0.00   80.2    14   13.2   330    19.3   870.1    0.00 
 241    3:00   0.00   80.0    15   14.5   324    21.9   870.1    0.00 
 241    3:10   0.00   79.7    16   16.5   319    22.8   870.1    0.00 
 241    3:20   0.00   79.5    18   16.4   318    22.4   870.1    0.00 
 241    3:30   0.00   79.4    20   13.9   324    19.2   870.1    0.00 
 241    3:40   0.00   79.2    21   13.4   327    19.5   870.1    0.00 
 241    3:50   0.00   79.4    21   13.9   326    18.3   870.2    0.00 
 241    4:00   0.00   79.1    22   13.2   321    18.5   870.1    0.00 
 241    4:10   0.00   78.8    22   13.3   317    17.6   870.0    0.00 
 241    4:20   0.00   78.9    22   13.4   320    17.1   870.0    0.00 
 241    4:30   0.00   78.9    23   14.3   312    18.8   870.1    0.00 
 241    4:40   0.00   79.0    23   14.7   314    18.5   870.1    0.00 
 241    4:50   0.00   79.0    23   14.4   317    18.4   870.2    0.00 
 241    5:00   0.00   78.9    23   13.8   316    18.9   870.2    0.00 
 241    5:10   0.00   78.7    23   13.8   313    18.1   870.3    0.00 
 241    5:20   0.00   78.4    23   13.0   312    17.6   870.4    0.00 
 241    5:30   0.00   78.3    23   13.1   315    16.4   870.4    0.00 
 241    5:40   0.01   78.5    23   12.6   315    18.9   870.4    0.00 
 241    5:50   0.03   78.6    23   13.4   318    18.9   870.6    0.00 
 241    6:00   0.08   79.2    22   12.3   318    17.3   870.7    0.00 
 241    6:10   0.11   79.6    22   12.5   312    17.5   870.7    0.00 
 241    6:20   0.14   80.2    21   11.7   312    17.2   870.7    0.00 
 241    6:30   0.18   80.6    21   10.8   319    15.4   870.7    0.00 
 241    6:40   0.22   81.2    21   11.1   316    14.5   870.6    0.00 
 241    6:50   0.25   81.7    20   10.7   318    15.4   870.7    0.00 
 241    7:00   0.29   82.1    20   10.7   319    15.1   870.8    0.00 
 241    7:10   0.33   82.6    20   10.5   318    15.2   870.9    0.00 
 241    7:20   0.37   83.1    19    9.8   318    14.0   870.9    0.00 
 241    7:30   0.40   83.6    19    9.6   320    14.5   870.9    0.00 
 241    7:40   0.44   84.1    18    8.7   320    13.4   871.0    0.00 
 241    7:50   0.48   84.7    18    8.2   319    11.7   871.0    0.00 
 241    8:00   0.51   85.6    17    6.8   317    11.3   871.1    0.00 
 241    8:10   0.55   86.2    16    6.8   314    10.0   871.2    0.00 
 241    8:20   0.58   86.6    16    6.2   314     9.6   871.2    0.00 
 241    8:30   0.61   87.6    14    4.4   302     8.0   871.2    0.00 
 241    8:40   0.64   88.5    14    3.3   303     6.4   871.2    0.00 
 241    8:50   0.68   89.6    14    3.8    15    10.5   871.3    0.00 
 241    9:00   0.71   88.8    13    4.8   227     8.0   871.3    0.00 
 241    9:10   0.74   89.9    13    3.2   292     6.4   871.3    0.00 
 241    9:20   0.76   90.5    13    2.8   217     6.1   871.3    0.00 
 241    9:30   0.79   91.9    12    1.1   116     3.4   871.2    0.00 
 241    9:40   0.81   91.3    12    6.2    85    11.9   871.2    0.00 
 241    9:50   0.84   89.8    12    6.6   120    11.2   871.2    0.00 
 241   10:00   0.85   90.6    13    3.1   154     9.3   871.2    0.00 
 241   10:10   0.87   91.1    12    5.0   200    10.7   871.1    0.00 
 241   10:20   0.89   90.1    12    5.5   105    12.2   871.0    0.00 
 241   10:30   0.91   91.2    12    3.6   178     7.5   871.0    0.00 
 241   10:40   0.93   91.5    11    4.7   195    10.2   870.9    0.00 
 241   10:50   0.94   91.6    10    5.5   194    12.9   870.9    0.00 
 241   11:00   0.94   91.3    10    5.9   205    14.7   870.8    0.00 
 241   11:10   0.95   91.3    11    4.1   133    14.0   870.7    0.00 
 241   11:20   0.96   92.1    10    3.9   189     9.4   870.6    0.00 
 241   11:30   0.97   92.2    10    6.0   129    11.7   870.5    0.00 
 241   11:40   0.97   92.5    10    4.6   139    14.5   870.4    0.00 
 241   11:50   0.97   92.4    10    6.1   166    16.7   870.4    0.00 
 241   12:00   0.97   92.4    10    5.7   161    12.6   870.4    0.00 
 241   12:10   0.97   92.5    10    5.0   233    12.1   870.3    0.00 
 241   12:20   0.97   92.1    10    7.3   124    13.4   870.2    0.00 
 241   12:30   0.96   92.0    10    5.8   128    13.2   870.1    0.00 
 241   12:40   0.93   92.9    10    3.3   242    11.5   870.0    0.00 
 241   12:50   0.94   92.3    10    5.5   121    12.1   869.9    0.00 
 241   13:00   0.93   92.3    10    6.0   127    12.8   869.8    0.00 
 241   13:10   0.92   93.1    10    4.3   206    11.5   869.7    0.00 
 241   13:20   0.90   92.2    10    5.3   129    12.9   869.5    0.00 
 241   13:30   0.88   92.9    10    4.4   160    13.4   869.4    0.00 
 241   13:40   0.85   94.4    10    4.5   226     9.4   869.2    0.00 
 241   13:50   0.84   92.7    10    5.5   104    11.8   869.1    0.00 
 241   14:00   0.83   93.3    10    3.7   151    12.2   869.1    0.00 
 241   14:10   0.80   93.6    10    5.0   106    13.2   869.0    0.00 
 241   14:20   0.78   93.0    10    3.5    35     9.9   868.8    0.00 
 241   14:30   0.73   93.5     9    4.4   197    12.1   868.7    0.00 
 241   14:40   0.69   93.0    10    6.3    99    11.3   868.6    0.00 
 241   14:50   0.68   93.9     9    3.7   210     7.2   868.6    0.00 
 241   15:00   0.67   94.1     9    2.7   176     6.1   868.5    0.00 
 241   15:10   0.64   93.1     9    5.3   126     9.8   868.4    0.00 
 241   15:20   0.58   93.6     9    3.0   219     8.9   868.4    0.00 
 241   15:30   0.56   93.8     9    2.2    60     6.9   868.3    0.00 
 241   15:40   0.54   93.5     9    3.7   104    12.9   868.3    0.00 
 241   15:50   0.50   94.3     9    4.1   204    10.2   868.2    0.00 
 241   16:00   0.47   92.6    10    7.6   149    12.0   868.2    0.00 
 241   16:10   0.43   92.4    10    4.6    92    11.5   868.3    0.00 
 241   16:20   0.39   93.7     9    4.0   218     8.4   868.2    0.00 
 241   16:30   0.35   92.5    10    3.3   256     7.8   868.2    0.00 
 241   16:40   0.32   92.7     9    3.0   206     7.0   868.2    0.00 
 241   16:50   0.28   92.4     9    1.7   260     6.4   868.3    0.00 
 241   17:00   0.24   92.6     9    2.7   125     7.2   868.3    0.00 
 241   17:10   0.20   92.4     9    2.6   241     7.8   868.2    0.00 
 241   17:20   0.11   91.3     9    4.8   218     9.5   868.2    0.00 
 241   17:30   0.01   88.8    10    1.3   238     3.7   868.1    0.00 
 241   17:40   0.01   87.6    10    2.0   237     3.4   868.1    0.00 
 241   17:50   0.01   87.2    10    2.8   237     5.5   868.2    0.00 
 241   18:00   0.00   87.0    10    1.1   160     4.0   868.2    0.00 
 241   18:10   0.00   84.9    11    1.6   119     3.4   868.2    0.00 
 241   18:20   0.00   84.1    11    0.6    71     2.4   868.2    0.00 
 241   18:30   0.00   81.5    12    0.6   357     2.6   868.4    0.00 
 241   18:40   0.00   80.9    12    1.4   283     2.8   868.4    0.00 
 241   18:50   0.00   79.0    13    2.5   280     3.1   868.4    0.00 
 241   19:00   0.00   81.8    12    2.7   283     3.4   868.4    0.00 
 241   19:10   0.00   79.1    13    3.5   283     4.2   868.5    0.00 
 241   19:20   0.00   78.6    13    3.3   273     4.2   868.6    0.00 
 241   19:30   0.00   79.7    13    3.5   275     4.2   868.6    0.00 
 241   19:40   0.00   78.0    13    3.8   280     4.5   868.7    0.00 
 241   19:50   0.00   78.4    13    3.9   280     4.6   868.7    0.00 
 241   20:00   0.00   78.8    13    4.3   275     5.0   868.8    0.00 

Return to Sweeney Granite Mountains graphs page.


Western Regional Climate Center,wrcc@dri.edu